Terminal Aerodrome Forecast
Issued by NWS Atlanta, GA

Home | Current Version | Previous Version | Text Only | Print | Product List | Glossary On
Versions: 1 2 3 4 5 6 7 8 9 10 11 12 13 14 15 16 17 18 19 20 21 22 23 24 25 26 27 28 29 30 31 32 33 34 35 36
350
FTUS42 KFFC 241157 AAA
TAFATL
TAF AMD
KATL 241157Z 2412/2518 04007KT P6SM BKN080
     FM241500 35006KT P6SM SCT080
     FM241700 28007KT P6SM FEW050
     FM250000 22004KT P6SM FEW250
     FM251500 21005KT P6SM FEW040=

USA.gov is the U.S. government's official web portal to all federal, state and local government web resources and services.